Time;durP1;ratioP1;P1;durP2;ratioP2;P2;SDS_P1;SDS_P2;PMS_P1;PMS_P2;Temp;Humidity;BMP_temperature;BMP_pressure;BME280_temperature;BME280_humidity;BME280_pressure;Samples;Min_cycle;Max_cycle;Signal;HPM_P1;HPM_P2
2022/03/26 00:00:17;;;;;;;19.85;10.35;;;;;;;3.12;49.70;95873.78;5109779;27;20040;-46
2022/03/26 00:02:44;;;;;;;31.83;12.13;;;;;;;3.17;49.41;95875.88;5112946;27;20047;-48
2022/03/26 00:05:12;;;;;;;25.65;13.82;;;;;;;3.02;49.71;95867.97;5113498;27;20035;-51
2022/03/26 00:07:38;;;;;;;25.33;13.02;;;;;;;2.95;49.87;95875.50;5110457;27;20543;-48
2022/03/26 00:10:06;;;;;;;21.90;11.05;;;;;;;2.86;49.77;95877.28;5111124;27;20040;-46
2022/03/26 00:12:33;;;;;;;19.50;10.38;;;;;;;2.42;50.40;95820.88;5114824;27;20034;-50
2022/03/26 00:15:00;;;;;;;22.40;11.15;;;;;;;2.77;50.75;95873.06;5111678;27;20039;-47
2022/03/26 00:17:26;;;;;;;24.35;10.32;;;;;;;2.76;50.79;95880.97;5108742;27;20116;-49
2022/03/26 00:19:53;;;;;;;17.33;7.47;;;;;;;2.70;50.81;95879.78;5111776;27;20055;-48
2022/03/26 00:22:21;;;;;;;17.73;7.05;;;;;;;2.61;51.25;95873.84;5111237;27;20424;-46
2022/03/26 00:24:48;;;;;;;16.25;8.00;;;;;;;2.44;51.89;95880.66;5111589;27;20046;-46
2022/03/26 00:27:15;;;;;;;17.85;7.07;;;;;;;2.34;52.32;95859.44;5109500;27;20047;-47
2022/03/26 00:29:42;;;;;;;21.60;8.00;;;;;;;2.39;52.77;95877.75;5088595;28;20046;-50
2022/03/26 00:32:09;;;;;;;15.65;7.22;;;;;;;2.34;52.56;95869.72;5110259;27;20044;-48
2022/03/26 00:34:36;;;;;;;16.65;8.13;;;;;;;2.25;52.79;95876.56;5112309;27;20040;-47
2022/03/26 00:37:03;;;;;;;19.45;6.80;;;;;;;2.15;53.69;95880.22;5108560;27;20035;-47
2022/03/26 00:39:31;;;;;;;19.17;7.88;;;;;;;2.13;53.74;95871.84;5108640;27;20047;-50
2022/03/26 00:41:58;;;;;;;10.95;6.07;;;;;;;2.05;54.02;95876.00;5113159;27;20057;-51
2022/03/26 00:44:25;;;;;;;19.08;7.30;;;;;;;1.91;54.68;95871.41;5095338;28;20031;-51
2022/03/26 00:46:52;;;;;;;14.93;7.25;;;;;;;1.80;55.35;95876.78;5113543;27;20516;-49
2022/03/26 00:49:19;;;;;;;13.82;6.78;;;;;;;1.70;55.92;95877.66;5116527;27;20516;-47
2022/03/26 00:51:46;;;;;;;16.42;7.32;;;;;;;1.60;56.54;95884.66;5114401;27;20046;-52
2022/03/26 00:54:13;;;;;;;13.68;6.95;;;;;;;1.60;57.40;95882.09;5110844;27;20492;-52
2022/03/26 00:56:41;;;;;;;11.93;5.80;;;;;;;1.74;56.90;95877.38;5113437;27;20416;-47
2022/03/26 00:59:08;;;;;;;19.77;6.13;;;;;;;1.76;56.90;95880.59;5112485;27;20043;-47
2022/03/26 01:01:34;;;;;;;15.88;7.15;;;;;;;1.67;56.55;95877.97;5112037;27;20116;-48
2022/03/26 01:04:02;;;;;;;16.25;5.50;;;;;;;1.71;57.09;95878.47;5110421;27;20043;-47
2022/03/26 01:06:29;;;;;;;10.63;6.10;;;;;;;1.78;56.77;95883.81;5115217;27;20100;-48
2022/03/26 01:08:56;;;;;;;13.80;7.90;;;;;;;1.82;56.94;95891.09;5107934;27;20122;-50
2022/03/26 01:11:23;;;;;;;14.70;6.45;;;;;;;1.84;57.60;95901.22;5107807;27;20504;-48
2022/03/26 01:13:53;;;;;;;15.10;6.72;;;;;;;1.87;58.02;95898.34;5110644;27;20039;-48
2022/03/26 01:16:20;;;;;;;18.10;6.95;;;;;;;1.91;57.62;95904.81;5111668;27;20613;-53
2022/03/26 01:18:47;;;;;;;14.90;6.10;;;;;;;1.96;57.53;95905.13;5110644;27;20043;-48
2022/03/26 01:21:15;;;;;;;12.68;6.03;;;;;;;1.87;57.64;95903.47;5110467;27;20488;-52
2022/03/26 01:23:43;;;;;;;9.45;5.47;;;;;;;1.87;57.66;95906.03;5110471;27;20043;-51
2022/03/26 01:26:10;;;;;;;13.68;7.18;;;;;;;1.87;57.80;95903.47;5109735;27;20051;-51
2022/03/26 01:28:37;;;;;;;12.20;6.15;;;;;;;1.87;57.76;95893.19;5108526;27;20035;-49
2022/03/26 01:31:04;;;;;;;13.13;6.32;;;;;;;1.80;57.47;95894.75;5114187;27;20031;-48
2022/03/26 01:33:31;;;;;;;11.35;6.65;;;;;;;1.75;57.94;95907.22;5113121;27;20043;-51
2022/03/26 01:35:57;;;;;;;16.27;6.95;;;;;;;1.64;57.26;95909.09;5111681;27;20039;-51
2022/03/26 01:38:24;;;;;;;23.67;7.55;;;;;;;1.47;58.65;95917.63;5114406;27;20097;-47
2022/03/26 01:40:51;;;;;;;23.30;6.95;;;;;;;1.43;58.95;95903.47;5094875;27;20542;-50
2022/03/26 01:43:18;;;;;;;12.55;7.15;;;;;;;1.40;58.80;95921.72;5111284;27;20050;-47
2022/03/26 01:45:45;;;;;;;19.15;8.57;;;;;;;1.33;58.98;95916.34;5109953;27;20507;-48
2022/03/26 01:48:12;;;;;;;22.88;8.32;;;;;;;1.24;59.09;95915.50;5111691;27;20053;-47
2022/03/26 01:50:40;;;;;;;25.95;10.75;;;;;;;1.14;58.98;95912.19;5107906;27;20088;-48
2022/03/26 01:53:07;;;;;;;21.08;9.50;;;;;;;0.97;59.86;95915.53;5103866;27;21903;-46
2022/03/26 01:55:34;;;;;;;29.20;9.48;;;;;;;0.84;60.46;95921.81;5111111;27;20048;-49
2022/03/26 01:58:02;;;;;;;19.10;8.70;;;;;;;0.74;60.68;95921.06;5108109;27;20066;-51
2022/03/26 02:00:30;;;;;;;16.88;8.40;;;;;;;0.68;60.82;95921.63;5106844;27;20054;-47
2022/03/26 02:02:58;;;;;;;17.77;7.68;;;;;;;0.62;60.84;95923.00;5106965;27;20047;-47
2022/03/26 02:05:25;;;;;;;16.02;7.88;;;;;;;0.54;60.93;95912.63;5108497;27;20122;-48
2022/03/26 02:07:52;;;;;;;26.63;8.63;;;;;;;0.36;61.92;95912.56;5111092;27;20393;-51
2022/03/26 02:10:20;;;;;;;22.50;7.22;;;;;;;0.43;61.33;95933.34;5109471;27;20416;-51
2022/03/26 02:12:48;;;;;;;10.80;6.18;;;;;;;0.33;61.50;95928.25;5111945;27;20039;-53
2022/03/26 02:15:15;;;;;;;14.43;6.10;;;;;;;0.26;61.87;95927.19;5104433;27;20040;-50
2022/03/26 02:17:43;;;;;;;12.75;6.05;;;;;;;0.07;62.53;95912.66;5107707;27;20492;-48
2022/03/26 02:20:12;;;;;;;19.50;5.72;;;;;;;0.08;63.13;95925.34;5105359;27;20471;-49
2022/03/26 02:22:39;;;;;;;10.73;5.90;;;;;;;0.00;63.70;95932.94;5090970;27;20048;-45
2022/03/26 02:25:08;;;;;;;13.85;5.63;;;;;;;-0.06;63.84;95928.34;5108639;27;20500;-46
2022/03/26 02:27:35;;;;;;;17.20;6.43;;;;;;;-0.05;64.46;95932.53;5109346;27;20055;-51
2022/03/26 02:30:04;;;;;;;13.18;5.28;;;;;;;-0.04;64.58;95929.00;5111750;27;20039;-52
2022/03/26 02:32:31;;;;;;;9.68;4.60;;;;;;;-0.12;64.18;95913.53;5110179;27;20056;-46
2022/03/26 02:34:58;;;;;;;13.40;5.32;;;;;;;-0.10;63.74;95921.88;5110288;27;20032;-47
2022/03/26 02:37:30;;;;;;;17.17;6.93;;;;;;;-0.03;63.51;95935.75;5105000;27;20129;-48
2022/03/26 02:39:58;;;;;;;13.57;6.40;;;;;;;-0.05;63.85;95940.22;5107069;27;20110;-46
2022/03/26 02:42:25;;;;;;;12.32;6.28;;;;;;;-0.08;64.50;95936.16;5114350;27;20039;-46
2022/03/26 02:44:52;;;;;;;12.77;5.90;;;;;;;0.00;64.79;95932.94;5113033;27;20047;-46
2022/03/26 02:47:19;;;;;;;11.32;5.85;;;;;;;-0.03;65.22;95941.69;5109681;27;20035;-46
2022/03/26 02:49:46;;;;;;;14.98;6.05;;;;;;;-0.10;66.28;95938.06;5109438;27;20058;-46
2022/03/26 02:52:13;;;;;;;20.40;8.68;;;;;;;-0.12;66.62;95939.94;5114362;27;20053;-49
2022/03/26 02:54:40;;;;;;;16.13;7.03;;;;;;;-0.09;66.61;95933.72;5106072;27;20048;-50
2022/03/26 02:57:06;;;;;;;22.15;9.00;;;;;;;-0.18;66.71;95924.31;5116717;27;20044;-47
2022/03/26 02:59:33;;;;;;;17.98;9.35;;;;;;;-0.14;66.88;95930.78;5107808;27;20108;-47
2022/03/26 03:02:00;;;;;;;20.60;9.40;;;;;;;-0.09;67.17;95939.69;5106535;27;20058;-49
2022/03/26 03:04:27;;;;;;;25.58;10.15;;;;;;;-0.01;66.88;95941.53;5113599;27;20050;-47
2022/03/26 03:06:54;;;;;;;24.67;10.15;;;;;;;0.07;66.70;95943.41;5110888;27;20047;-52
2022/03/26 03:09:21;;;;;;;28.67;9.77;;;;;;;0.07;66.17;95949.34;5115399;27;20039;-50
2022/03/26 03:11:48;;;;;;;21.50;9.02;;;;;;;0.08;65.43;95956.09;5110719;27;20490;-48
2022/03/26 03:14:15;;;;;;;18.90;9.18;;;;;;;0.04;65.34;95953.94;5106655;27;20055;-47
2022/03/26 03:16:42;;;;;;;12.20;5.80;;;;;;;-0.05;64.34;95947.91;5121105;27;20035;-46
2022/03/26 03:19:09;;;;;;;15.77;7.15;;;;;;;-0.10;63.83;95952.63;5108455;27;20049;-48
2022/03/26 03:21:36;;;;;;;16.85;7.68;;;;;;;-0.36;64.21;95953.19;5107101;27;20090;-48
2022/03/26 03:24:03;;;;;;;16.55;8.25;;;;;;;-0.42;64.84;95949.38;5111696;27;20483;-47
2022/03/26 03:26:31;;;;;;;19.25;8.43;;;;;;;-0.44;65.16;95955.59;5106057;27;20489;-48
2022/03/26 03:28:59;;;;;;;16.55;7.40;;;;;;;-0.47;65.49;95955.84;5105895;27;20039;-46
2022/03/26 03:31:28;;;;;;;17.42;7.75;;;;;;;-0.50;65.78;95956.16;5105890;27;20562;-52
2022/03/26 03:33:56;;;;;;;15.65;6.50;;;;;;;-0.60;66.00;95951.81;5110885;27;20552;-50
2022/03/26 03:36:22;;;;;;;19.23;7.40;;;;;;;-0.68;66.30;95948.31;5110009;27;20044;-49
2022/03/26 03:38:49;;;;;;;20.40;6.50;;;;;;;-0.78;66.35;95961.09;5106734;28;20092;-49
2022/03/26 03:41:17;;;;;;;18.73;7.95;;;;;;;-0.88;67.15;95957.69;5108123;28;20431;-48
2022/03/26 03:43:44;;;;;;;25.45;8.82;;;;;;;-0.98;67.21;95953.38;5105398;28;20101;-48
2022/03/26 03:46:11;;;;;;;15.32;7.18;;;;;;;-1.02;67.88;95957.16;5114425;28;20043;-48
2022/03/26 03:48:38;;;;;;;26.80;7.80;;;;;;;-1.04;68.22;95953.91;5112251;28;20779;-48
2022/03/26 03:51:05;;;;;;;16.15;6.40;;;;;;;-1.00;68.41;95965.50;5108079;28;20374;-48
2022/03/26 03:53:32;;;;;;;14.68;7.28;;;;;;;-1.04;68.40;95959.03;5108600;28;20051;-46
2022/03/26 03:55:58;;;;;;;12.15;6.25;;;;;;;-1.04;67.78;95959.03;5106064;28;20044;-48
2022/03/26 03:58:25;;;;;;;11.07;6.43;;;;;;;-1.03;67.48;95960.63;5104111;28;20044;-51
2022/03/26 04:00:55;;;;;;;11.63;6.25;;;;;;;-1.04;67.61;95961.59;5104238;28;20040;-49
2022/03/26 04:03:23;;;;;;;17.48;7.57;;;;;;;-0.96;67.40;95959.16;5114153;28;20456;-46
2022/03/26 04:05:50;;;;;;;20.20;10.65;;;;;;;-1.01;67.93;95958.78;5104391;28;20097;-47
2022/03/26 04:08:16;;;;;;;21.05;9.88;;;;;;;-1.01;67.92;95958.78;5107300;28;20035;-48
2022/03/26 04:10:43;;;;;;;23.60;9.95;;;;;;;-0.96;68.48;95966.03;5108368;28;20550;-47
2022/03/26 04:13:10;;;;;;;26.10;12.93;;;;;;;-1.01;68.74;95958.78;5108880;28;20055;-49
2022/03/26 04:15:37;;;;;;;23.52;11.07;;;;;;;-0.97;68.97;95975.47;5111281;28;20592;-51
2022/03/26 04:18:04;;;;;;;23.38;10.68;;;;;;;-0.97;68.72;95978.03;5106501;28;20054;-47
2022/03/26 04:20:31;;;;;;;24.75;10.32;;;;;;;-0.96;69.08;95977.06;5102835;28;20043;-52
2022/03/26 04:22:57;;;;;;;24.00;11.02;;;;;;;-0.93;68.62;95980.34;5103973;28;20044;-47
2022/03/26 04:25:24;;;;;;;21.23;8.95;;;;;;;-1.02;68.74;95971.69;5108710;28;20066;-47
2022/03/26 04:27:51;;;;;;;14.45;8.10;;;;;;;-0.97;68.77;95975.47;5104400;28;20043;-48
2022/03/26 04:30:18;;;;;;;21.02;7.72;;;;;;;-0.91;68.80;95988.69;5110618;28;20557;-51
2022/03/26 04:32:45;;;;;;;16.27;7.55;;;;;;;-0.92;68.73;95981.94;5106392;28;20377;-50
2022/03/26 04:35:13;;;;;;;23.15;9.27;;;;;;;-0.90;68.78;95990.28;5107210;28;20100;-47
2022/03/26 04:37:41;;;;;;;35.65;10.20;;;;;;;-0.98;68.59;95986.63;5100243;28;20040;-47
2022/03/26 04:40:11;;;;;;;36.75;10.57;;;;;;;-1.07;68.37;95989.16;5100829;28;20044;-46
2022/03/26 04:42:40;;;;;;;27.02;11.65;;;;;;;-1.19;67.90;95991.00;5100220;28;20106;-48
2022/03/26 04:45:07;;;;;;;21.33;9.48;;;;;;;-1.17;68.73;95994.22;5101668;28;21590;-50
2022/03/26 04:47:34;;;;;;;19.45;10.40;;;;;;;-1.15;69.29;95997.50;5106398;27;20043;-49
2022/03/26 04:50:01;;;;;;;17.92;8.63;;;;;;;-1.15;69.66;96002.59;5107335;27;20039;-48
2022/03/26 04:52:28;;;;;;;24.33;10.23;;;;;;;-1.18;69.88;95995.19;5106649;27;20035;-46
2022/03/26 04:54:55;;;;;;;21.13;10.38;;;;;;;-1.13;70.45;96000.72;5102178;27;20039;-50
2022/03/26 04:57:21;;;;;;;19.42;9.60;;;;;;;-1.16;70.71;95995.88;5104775;27;20051;-51
2022/03/26 04:59:48;;;;;;;27.02;9.15;;;;;;;-1.08;70.67;96005.44;5116780;27;20046;-48
2022/03/26 05:02:15;;;;;;;21.80;8.95;;;;;;;-1.06;70.22;96006.94;5114579;27;20062;-48
2022/03/26 05:04:42;;;;;;;26.50;9.85;;;;;;;-1.01;70.06;96009.09;5117010;27;20067;-48
2022/03/26 05:09:55;;;;;;;14.43;8.07;;;;;;;-0.92;70.22;96010.06;5106437;27;20507;-48
2022/03/26 05:12:21;;;;;;;18.13;7.80;;;;;;;-0.83;70.13;96006.72;5112420;27;20055;-51
2022/03/26 05:14:48;;;;;;;64.32;23.88;;;;;;;-0.72;69.88;96009.19;5111438;27;20048;-51
2022/03/26 05:17:15;;;;;;;30.73;13.18;;;;;;;-0.64;70.09;96017.00;5104557;27;20047;-50
2022/03/26 05:19:42;;;;;;;23.27;8.75;;;;;;;-0.50;70.91;96007.34;5110707;27;20039;-50
2022/03/26 05:22:09;;;;;;;16.63;8.50;;;;;;;-0.35;71.07;96016.22;5072857;27;20039;-49
2022/03/26 05:24:36;;;;;;;34.63;16.15;;;;;;;-0.11;70.18;96015.00;5107827;27;20042;-50
2022/03/26 05:27:03;;;;;;;20.95;11.52;;;;;;;0.03;70.00;96014.59;5112624;27;20040;-49
2022/03/26 05:29:30;;;;;;;16.88;7.82;;;;;;;0.15;69.36;96005.03;5090830;27;20074;-49
2022/03/26 05:31:59;;;;;;;18.40;6.88;;;;;;;0.36;69.33;96020.22;5111196;27;20047;-47
2022/03/26 05:34:26;;;;;;;26.67;11.30;;;;;;;0.59;69.02;96019.91;5111500;27;20093;-53
2022/03/26 05:36:53;;;;;;;25.15;13.88;;;;;;;0.75;68.49;96020.13;5109006;27;20575;-52
2022/03/26 05:39:20;;;;;;;16.77;8.93;;;;;;;1.02;67.71;96027.03;5108936;27;21726;-50
2022/03/26 05:41:47;;;;;;;24.33;9.43;;;;;;;1.27;67.65;96025.56;5110560;27;20137;-50
2022/03/26 05:44:14;;;;;;;21.42;8.70;;;;;;;1.41;68.01;96029.41;5110013;27;20484;-52
2022/03/26 05:46:42;;;;;;;27.40;10.85;;;;;;;1.56;68.07;96034.84;5111865;27;20096;-48
2022/03/26 05:49:10;;;;;;;24.30;10.35;;;;;;;1.66;67.68;96030.47;5107723;27;20040;-47
2022/03/26 05:51:37;;;;;;;25.85;10.10;;;;;;;1.75;67.21;96033.91;5106536;27;20555;-48
2022/03/26 05:54:04;;;;;;;20.15;10.65;;;;;;;1.87;67.50;96032.75;5110333;27;20035;-48
2022/03/26 05:56:36;;;;;;;21.02;9.48;;;;;;;2.02;67.85;96035.59;5092113;27;20043;-52
2022/03/26 05:59:04;;;;;;;21.85;9.75;;;;;;;2.17;67.63;96030.75;5108722;27;20035;-48
2022/03/26 06:01:32;;;;;;;22.45;9.32;;;;;;;2.41;66.80;96030.13;5108611;27;20074;-49
2022/03/26 06:03:59;;;;;;;25.20;10.70;;;;;;;2.64;65.38;96024.47;5108210;27;20114;-50
2022/03/26 06:06:26;;;;;;;23.45;10.55;;;;;;;2.84;63.99;96025.84;5108940;27;20451;-52
2022/03/26 06:08:53;;;;;;;26.65;9.65;;;;;;;3.06;61.55;96034.00;5105937;27;20165;-50
2022/03/26 06:11:21;;;;;;;24.33;11.32;;;;;;;3.27;61.24;96040.53;5108888;27;20040;-51
2022/03/26 06:13:48;;;;;;;17.83;9.90;;;;;;;3.25;61.36;96038.91;5107069;27;20498;-49
2022/03/26 06:16:15;;;;;;;28.23;12.20;;;;;;;3.17;61.60;96045.78;5107059;27;20042;-48
2022/03/26 06:18:43;;;;;;;30.85;10.20;;;;;;;3.04;62.23;96041.06;5105726;27;20031;-51
2022/03/26 06:21:10;;;;;;;32.00;11.30;;;;;;;3.04;63.09;96047.06;5107250;27;20116;-51
2022/03/26 06:23:38;;;;;;;31.95;10.38;;;;;;;2.95;63.96;96036.84;5106818;27;20043;-49
2022/03/26 06:26:06;;;;;;;24.90;11.18;;;;;;;3.11;64.12;96054.94;5108046;27;20052;-47
2022/03/26 06:28:34;;;;;;;25.65;9.20;;;;;;;3.32;63.11;96051.97;5107304;27;20032;-52
2022/03/26 06:31:01;;;;;;;28.73;10.75;;;;;;;3.52;62.60;96055.09;5108185;27;20497;-48
2022/03/26 06:33:29;;;;;;;28.83;11.63;;;;;;;3.63;62.05;96041.94;5108138;27;20504;-51
2022/03/26 06:35:56;;;;;;;48.63;15.48;;;;;;;3.72;62.17;96045.31;5108222;27;20056;-51
2022/03/26 06:38:28;;;;;;;49.50;15.32;;;;;;;4.01;61.28;96049.25;5105445;27;20047;-50
2022/03/26 06:40:55;;;;;;;19.23;9.02;;;;;;;4.20;59.53;96058.44;5106010;27;20047;-49
2022/03/26 06:43:23;;;;;;;15.25;7.18;;;;;;;4.35;58.46;96061.97;5107406;27;20054;-51
2022/03/26 06:45:51;;;;;;;21.08;8.82;;;;;;;4.59;57.75;96057.78;5107720;27;20047;-48
2022/03/26 06:48:18;;;;;;;24.05;9.23;;;;;;;4.78;57.06;96061.78;5108441;27;20044;-49
2022/03/26 06:50:45;;;;;;;21.92;10.45;;;;;;;5.06;56.85;96059.63;5105247;27;20044;-50
2022/03/26 06:53:13;;;;;;;17.17;8.15;;;;;;;5.24;53.86;96066.34;5105889;27;20067;-53
2022/03/26 06:55:41;;;;;;;16.55;6.70;;;;;;;5.45;52.21;96069.16;5106004;27;20119;-52
2022/03/26 06:58:09;;;;;;;22.45;8.50;;;;;;;5.59;51.89;96069.44;5106022;27;20054;-52
2022/03/26 07:00:42;;;;;;;13.20;7.70;;;;;;;5.77;51.37;96072.59;5106655;27;20126;-51
2022/03/26 07:03:09;;;;;;;16.58;7.22;;;;;;;5.84;50.17;96068.34;5109029;27;20457;-49
2022/03/26 07:05:37;;;;;;;19.27;9.25;;;;;;;5.91;50.34;96069.25;5106524;27;20050;-49
2022/03/26 07:08:05;;;;;;;26.23;11.63;;;;;;;5.96;50.29;96063.63;5107895;27;20067;-51
2022/03/26 07:10:34;;;;;;;17.25;8.43;;;;;;;6.16;49.23;96076.91;5107205;27;20092;-50
2022/03/26 07:13:01;;;;;;;35.42;13.02;;;;;;;6.26;49.78;96082.63;5107058;27;20116;-47
2022/03/26 07:15:31;;;;;;;17.63;7.80;;;;;;;6.42;48.22;96075.75;5107017;27;20691;-52
2022/03/26 07:17:59;;;;;;;16.98;8.80;;;;;;;6.59;48.03;96082.41;5107200;27;20039;-49
2022/03/26 07:20:26;;;;;;;16.95;8.25;;;;;;;6.72;47.06;96086.16;5107324;27;20075;-52
2022/03/26 07:22:54;;;;;;;14.50;7.13;;;;;;;6.91;46.86;96088.25;5108064;27;20142;-48
2022/03/26 07:25:22;;;;;;;17.13;8.23;;;;;;;7.05;46.85;96082.28;5108781;27;20527;-49
2022/03/26 07:27:49;;;;;;;14.63;8.02;;;;;;;7.24;46.12;96085.34;5104417;28;20104;-52
2022/03/26 07:30:19;;;;;;;24.65;8.32;;;;;;;7.34;46.02;96091.03;5086557;27;20488;-49
2022/03/26 07:32:46;;;;;;;12.68;6.50;;;;;;;7.43;45.02;96089.16;5106270;27;20040;-51
2022/03/26 07:35:14;;;;;;;30.98;8.13;;;;;;;7.22;44.88;96079.50;5105951;28;20715;-49
2022/03/26 07:37:43;;;;;;;17.73;7.53;;;;;;;7.54;45.12;96090.50;5104090;28;20531;-49
2022/03/26 07:40:14;;;;;;;16.23;8.65;;;;;;;7.80;44.42;96084.84;5106686;28;20043;-52
2022/03/26 07:42:41;;;;;;;14.95;7.57;;;;;;;7.94;43.32;96085.75;5106782;27;20135;-48
2022/03/26 07:45:08;;;;;;;13.68;7.75;;;;;;;8.13;43.19;96090.38;5106832;28;20405;-51
2022/03/26 07:47:36;;;;;;;17.27;9.50;;;;;;;8.06;43.96;96089.50;5106519;28;20046;-49
2022/03/26 07:50:06;;;;;;;14.07;8.25;;;;;;;8.01;43.95;96091.81;5106270;28;20431;-50
2022/03/26 07:52:34;;;;;;;17.73;8.60;;;;;;;8.03;43.59;96095.03;5106460;28;20047;-47
2022/03/26 07:55:03;;;;;;;15.77;7.43;;;;;;;8.26;43.28;96088.91;5105080;28;20047;-49
2022/03/26 07:57:30;;;;;;;16.95;8.10;;;;;;;8.34;42.79;96091.38;5105345;28;20766;-52
2022/03/26 07:59:57;;;;;;;15.23;8.60;;;;;;;8.23;42.59;96085.69;5104771;28;20130;-49
2022/03/26 08:02:25;;;;;;;17.02;9.38;;;;;;;8.27;42.36;96086.13;5106999;28;20039;-50
2022/03/26 08:04:52;;;;;;;23.25;10.30;;;;;;;8.46;42.90;96087.31;5104262;28;20851;-51
2022/03/26 08:07:21;;;;;;;12.75;7.25;;;;;;;8.56;39.72;96084.41;5105368;28;20138;-49
2022/03/26 08:09:48;;;;;;;15.88;7.00;;;;;;;8.69;39.92;96088.91;5106106;28;20032;-52
2022/03/26 08:12:16;;;;;;;16.45;8.60;;;;;;;8.81;40.41;96087.41;5106359;28;20092;-49
2022/03/26 08:14:45;;;;;;;15.30;7.35;;;;;;;8.99;40.53;96084.31;5105154;28;20045;-51
2022/03/26 08:17:12;;;;;;;19.17;7.80;;;;;;;9.23;39.41;96085.66;5105853;28;20046;-49
2022/03/26 08:19:41;;;;;;;19.30;7.68;;;;;;;9.27;38.62;96081.69;5109111;28;20043;-49
2022/03/26 08:22:09;;;;;;;17.00;7.75;;;;;;;9.41;38.50;96086.97;5109985;27;20044;-51
2022/03/26 08:24:36;;;;;;;12.43;7.75;;;;;;;9.67;38.35;96087.09;5110374;27;20420;-48
2022/03/26 08:27:04;;;;;;;16.70;7.80;;;;;;;9.75;38.01;96084.31;5109348;27;20104;-46
2022/03/26 08:29:31;;;;;;;11.57;7.82;;;;;;;9.73;37.74;96086.31;5109721;27;20054;-46
2022/03/26 08:32:02;;;;;;;10.68;6.90;;;;;;;9.80;37.12;96085.56;5110495;27;20043;-47
2022/03/26 08:34:29;;;;;;;13.07;6.90;;;;;;;10.07;37.14;96087.22;5106155;27;20040;-47
2022/03/26 08:36:57;;;;;;;21.15;11.05;;;;;;;10.47;37.22;96081.31;5108720;27;20420;-47
2022/03/26 08:39:24;;;;;;;15.88;7.88;;;;;;;10.73;36.50;96072.69;5089105;27;20043;-49
2022/03/26 08:41:51;;;;;;;16.88;7.45;;;;;;;10.97;35.38;96078.31;5107852;27;20140;-48
2022/03/26 08:44:19;;;;;;;23.63;8.85;;;;;;;11.11;34.93;96077.28;5090293;27;20040;-46
2022/03/26 08:46:46;;;;;;;42.50;20.52;;;;;;;11.36;35.55;96076.63;5107717;27;20170;-45
2022/03/26 08:49:14;;;;;;;14.30;7.80;;;;;;;11.43;34.64;96074.78;5108207;27;20067;-49
2022/03/26 08:51:41;;;;;;;16.60;8.73;;;;;;;11.62;34.33;96068.72;5108336;27;20056;-49
2022/03/26 08:54:09;;;;;;;20.92;10.27;;;;;;;11.82;33.24;96062.59;5107591;27;20048;-51
2022/03/26 08:56:37;;;;;;;17.10;7.50;;;;;;;11.92;32.17;96064.78;5108015;27;20066;-47
2022/03/26 08:59:04;;;;;;;10.13;5.55;;;;;;;11.79;31.82;96057.78;5106320;27;20047;-49
2022/03/26 09:01:31;;;;;;;12.75;7.70;;;;;;;11.98;31.67;96056.94;5108829;27;20055;-48
2022/03/26 09:03:59;;;;;;;11.65;6.38;;;;;;;11.94;32.41;96055.75;5105808;27;20104;-51
2022/03/26 09:06:26;;;;;;;11.95;7.00;;;;;;;12.03;32.10;96054.50;5110469;27;20051;-45
2022/03/26 09:08:53;;;;;;;12.45;7.45;;;;;;;12.28;30.57;96056.38;5108508;27;20085;-47
2022/03/26 09:11:20;;;;;;;13.02;6.35;;;;;;;12.52;28.92;96051.38;5107962;27;20126;-49
2022/03/26 09:13:47;;;;;;;11.93;6.72;;;;;;;12.62;28.39;96051.66;5109415;27;20059;-44
2022/03/26 09:16:14;;;;;;;9.57;4.50;;;;;;;12.69;26.93;96052.41;5108579;27;20047;-47
2022/03/26 09:18:41;;;;;;;14.00;5.88;;;;;;;12.73;26.94;96052.78;5107878;27;20045;-48
2022/03/26 09:21:07;;;;;;;13.63;6.32;;;;;;;12.92;27.35;96048.41;5109630;27;20039;-51
2022/03/26 09:23:34;;;;;;;14.48;6.97;;;;;;;13.17;27.47;96037.91;5106371;27;20930;-46
2022/03/26 09:26:04;;;;;;;13.10;6.82;;;;;;;13.48;27.17;96044.84;5107236;27;20096;-47
2022/03/26 09:28:31;;;;;;;13.70;6.55;;;;;;;13.43;27.66;96042.06;5107718;27;20512;-51
2022/03/26 09:30:58;;;;;;;18.23;7.47;;;;;;;13.42;27.74;96040.50;5107951;27;20104;-45
2022/03/26 09:33:25;;;;;;;13.27;6.35;;;;;;;13.36;28.56;96036.94;5108018;27;20043;-51
2022/03/26 09:35:52;;;;;;;12.07;5.80;;;;;;;13.46;28.15;96041.63;5109318;27;20547;-52
2022/03/26 09:38:24;;;;;;;14.05;7.43;;;;;;;13.50;28.86;96027.09;5107570;27;20043;-50
2022/03/26 09:40:51;;;;;;;12.40;7.10;;;;;;;13.55;28.52;96027.25;5108557;27;20040;-47
2022/03/26 09:43:18;;;;;;;14.70;7.82;;;;;;;13.78;28.61;96028.38;5108645;27;20165;-48
2022/03/26 09:45:45;;;;;;;13.30;6.50;;;;;;;13.96;28.25;96030.16;5106634;27;20738;-46
2022/03/26 09:48:12;;;;;;;20.73;6.45;;;;;;;13.87;29.62;96026.25;5106954;27;20602;-49
2022/03/26 09:50:41;;;;;;;16.13;7.80;;;;;;;13.54;29.95;96017.81;5106750;27;20055;-50
2022/03/26 09:53:12;;;;;;;12.80;7.97;;;;;;;13.83;29.47;96020.66;5107194;27;20474;-47
2022/03/26 09:55:40;;;;;;;10.82;7.07;;;;;;;13.91;29.05;96012.47;5107458;27;20114;-51
2022/03/26 09:58:07;;;;;;;13.52;7.30;;;;;;;14.05;29.26;96012.31;5107861;27;20119;-49
2022/03/26 10:00:34;;;;;;;12.10;6.38;;;;;;;14.19;28.88;96007.66;5107583;27;20040;-51
2022/03/26 10:03:00;;;;;;;12.95;4.93;;;;;;;13.84;29.99;96003.91;5107842;27;20122;-50
2022/03/26 10:05:32;;;;;;;11.48;6.60;;;;;;;14.07;30.36;96010.25;5107837;27;20036;-50
2022/03/26 10:08:15;;;;;;;10.75;6.32;;;;;;;14.42;28.96;96006.91;5107455;27;20531;-52
2022/03/26 10:10:44;;;;;;;11.23;5.40;;;;;;;14.57;28.47;96002.03;5105949;27;20035;-49
2022/03/26 10:13:12;;;;;;;11.77;7.13;;;;;;;14.62;29.01;95986.47;5105657;27;20122;-49
2022/03/26 10:16:00;;;;;;;9.95;6.45;;;;;;;14.47;28.83;96004.41;5106987;27;20043;-50
2022/03/26 10:18:34;;;;;;;15.63;7.75;;;;;;;14.32;28.82;95997.78;5106682;27;20104;-49
2022/03/26 10:21:01;;;;;;;13.73;6.60;;;;;;;14.38;28.97;95990.03;5107871;27;20035;-53
2022/03/26 10:23:29;;;;;;;11.43;5.72;;;;;;;14.47;29.09;95989.47;5108336;27;20086;-51
2022/03/26 10:26:16;;;;;;;11.30;6.32;;;;;;;14.76;28.12;95970.47;5108095;27;20504;-48
2022/03/26 10:28:49;;;;;;;11.05;6.30;;;;;;;14.81;27.13;95978.47;5107925;27;20051;-51
2022/03/26 10:34:21;;;;;;;9.65;5.35;;;;;;;14.87;28.38;95972.28;5106716;27;20504;-47
2022/03/26 10:36:54;;;;;;;13.35;6.72;;;;;;;14.96;27.52;95973.53;5108795;27;20761;-47
2022/03/26 10:39:24;;;;;;;10.80;5.80;;;;;;;15.20;26.80;95976.13;5107319;27;20035;-46
2022/03/26 10:41:57;;;;;;;11.52;5.85;;;;;;;15.01;26.51;95973.63;5107331;27;20042;-50
2022/03/26 10:44:26;;;;;;;14.60;6.05;;;;;;;14.85;26.27;95958.59;5108174;27;20512;-51
2022/03/26 10:46:59;;;;;;;7.20;4.75;;;;;;;14.99;26.02;95953.94;5108139;27;20074;-50
2022/03/26 10:49:26;;;;;;;8.88;5.53;;;;;;;15.26;26.56;95948.97;5105549;27;20546;-47
2022/03/26 10:51:53;;;;;;;13.45;6.47;;;;;;;15.42;26.39;95958.72;5108102;27;20047;-49
2022/03/26 10:54:28;;;;;;;11.00;6.40;;;;;;;15.58;25.71;95957.19;5105684;27;20067;-54
2022/03/26 10:56:57;;;;;;;7.97;5.20;;;;;;;15.59;24.38;95960.59;5106204;27;20055;-49
2022/03/26 10:59:25;;;;;;;12.27;6.10;;;;;;;15.64;24.30;95939.69;5106527;27;20039;-49
2022/03/26 11:01:52;;;;;;;11.40;6.05;;;;;;;15.93;24.07;95937.84;5106233;27;20515;-50
2022/03/26 11:04:20;;;;;;;10.02;4.80;;;;;;;15.83;24.16;95943.75;5107430;27;20451;-46
2022/03/26 11:06:48;;;;;;;11.38;5.28;;;;;;;15.90;23.07;95943.59;5107439;27;20050;-48
2022/03/26 11:09:16;;;;;;;11.45;5.60;;;;;;;15.97;23.03;95946.06;5106751;27;20092;-48
2022/03/26 11:11:45;;;;;;;9.40;4.75;;;;;;;16.10;23.21;95937.88;5106343;27;20067;-51
2022/03/26 11:14:18;;;;;;;10.60;6.28;;;;;;;16.49;23.34;95924.78;5104135;27;20504;-47
2022/03/26 11:16:51;;;;;;;8.57;5.43;;;;;;;16.73;22.12;95916.72;5104514;28;20059;-48
2022/03/26 11:19:37;;;;;;;5.60;4.50;;;;;;;16.29;21.00;95919.22;5104564;27;20043;-53
2022/03/26 11:22:31;;;;;;;15.25;5.90;;;;;;;16.21;21.28;95923.84;5104313;27;20058;-49
2022/03/26 11:25:17;;;;;;;11.73;5.63;;;;;;;16.43;22.16;95920.50;5086977;27;20048;-49
2022/03/26 11:27:44;;;;;;;9.82;4.78;;;;;;;16.65;21.46;95911.84;5086245;28;20051;-49
2022/03/26 11:30:38;;;;;;;5.90;3.65;;;;;;;16.33;19.69;95910.63;5107352;27;20043;-50
2022/03/26 11:33:13;;;;;;;9.63;6.00;;;;;;;16.56;21.05;95912.25;5107009;27;20495;-50
2022/03/26 11:35:50;;;;;;;13.68;5.03;;;;;;;16.76;21.34;95908.31;5106933;27;20044;-48
2022/03/26 11:38:18;;;;;;;9.30;5.28;;;;;;;17.05;21.40;95906.34;5107319;27;20046;-50